Darstellungsparameter: Aktuell verwendete Einstellungen:
Skalierung der Graphiken ... ?
xyx+y,   Skalierungsfaktor:      Skalierung: Modus: x, Faktor: 1
Darstellungszeitraum ... ?
Vom - - bis: - -   Zeitraum: 15.11.2008 - 16.11.2008
Min/Max/Avg-Anzeige ... ?
Zeige MMA aktuell
Zeige MMA Monat
Zeige MMA alles
Zeige --A aktuell
Zeige --A Monat
Zeige --A alles
Keine MMA-Anzeige
MMA:
Average (ber die Originaldaten)
MMA-Basis: 17.04.2019 - 19.05.2019
Quicknavigation für Darstellung... ?
Tage:      1T, 2T, 3T, 5T -1T -2T -3T -5T +1T +2T +3T +5T
Wochen: 1W, 2W, 3W -1W -2W -3W +1W +2W +3W
Monate: 1M, 3M, 6M -1M -3M -6M +1M +3M +6M
Jahre:    1J, 3J, 5J, 10J -1J -3J -5J -10J +1J +3J +5J +10J
Nutze für die Darstellung ... ?
Originaldaten oder Mittelwerte auf ...
Stundenbasis Tagesbasis Wochenbasis
Monatsbasis Jahresbasis      Datenbasis: Original-Daten
Darstellen als:
Statistik (Auto) Statistik J:M      Darstellung:
Zur Graphik,    zurück zur Übersicht aller Sensoren.
 
Tabellarische Datenbersicht: ?
 
Sensor: Nr:Datum:Temp:Abs-Feuchte:Windchill:Wind:
Aussen-T/F 1 15-11-2008 00:07:01 8.1 C 6.32 g/m*3 8.1 C 0 km/h
2 15-11-2008 00:19:01 8.1 C 6.32 g/m*3 8.1 C 0 km/h
3 15-11-2008 00:31:01 8.1 C 6.41 g/m*3 8.1 C 0 km/h
4 15-11-2008 00:43:02 8.1 C 6.41 g/m*3 8.1 C 0 km/h
5 15-11-2008 00:55:02 8.1 C 6.49 g/m*3 8.1 C 0 km/h
6 15-11-2008 01:07:02 8.1 C 6.49 g/m*3 8.1 C 0 km/h
7 15-11-2008 01:19:02 8 C 6.45 g/m*3 8 C 0 km/h
8 15-11-2008 01:31:02 8 C 6.53 g/m*3 8 C 0 km/h
9 15-11-2008 01:43:02 8.1 C 6.57 g/m*3 8.1 C 0 km/h
10 15-11-2008 01:55:02 8.1 C 6.57 g/m*3 8.1 C 0 km/h
11 15-11-2008 02:07:02 8.2 C 6.62 g/m*3 8.2 C 0 km/h
12 15-11-2008 02:19:02 8.2 C 6.62 g/m*3 8.2 C 0 km/h
13 15-11-2008 02:31:02 8.2 C 6.62 g/m*3 8.2 C 0 km/h
14 15-11-2008 02:43:02 8.2 C 6.62 g/m*3 8.2 C 0 km/h
15 15-11-2008 02:55:02 8.2 C 6.62 g/m*3 8.2 C 0 km/h
16 15-11-2008 03:07:02 8.2 C 6.62 g/m*3 8.2 C 0 km/h
17 15-11-2008 03:19:02 8.2 C 6.62 g/m*3 8.2 C 0 km/h
18 15-11-2008 03:31:02 8.2 C 6.62 g/m*3 8.2 C 0 km/h
19 15-11-2008 03:43:02 8.2 C 6.7 g/m*3 8.2 C 0 km/h
20 15-11-2008 03:55:02 8.2 C 6.7 g/m*3 8.2 C 0 km/h
21 15-11-2008 04:07:02 8.2 C 6.7 g/m*3 8.2 C 0 km/h
22 15-11-2008 04:19:02 8.2 C 6.7 g/m*3 8.2 C 0 km/h
23 15-11-2008 04:31:03 8.3 C 6.83 g/m*3 8.3 C 0 km/h
24 15-11-2008 04:43:03 8.4 C 6.87 g/m*3 8.4 C 0 km/h
25 15-11-2008 04:55:03 8.5 C 6.92 g/m*3 8.5 C 0 km/h
Sensor: Nr:Datum:Temp:Abs-Feuchte:Windchill:Wind:
Aussen-T/F 26 15-11-2008 05:07:03 8.5 C 6.92 g/m*3 8.5 C 0 km/h
27 15-11-2008 05:19:03 8.6 C 6.96 g/m*3 8.6 C 0 km/h
28 15-11-2008 05:31:03 8.7 C 7.01 g/m*3 8.7 C 0 km/h
29 15-11-2008 05:43:03 8.8 C 6.96 g/m*3 8.8 C 0 km/h
30 15-11-2008 05:55:03 8.8 C 6.96 g/m*3 8.8 C 0 km/h
31 15-11-2008 06:07:03 8.8 C 6.96 g/m*3 8.8 C 0 km/h
32 15-11-2008 06:19:03 8.8 C 6.96 g/m*3 8.8 C 0 km/h
33 15-11-2008 06:31:03 8.8 C 6.96 g/m*3 8.8 C 0 km/h
34 15-11-2008 06:43:03 8.9 C 7.01 g/m*3 8.9 C 0 km/h
35 15-11-2008 06:55:03 8.9 C 7.01 g/m*3 8.9 C 0 km/h
36 15-11-2008 07:07:03 9 C 6.96 g/m*3 9 C 0 km/h
37 15-11-2008 07:19:03 9 C 6.96 g/m*3 9 C 0 km/h
38 15-11-2008 07:31:03 9 C 6.96 g/m*3 9 C 0 km/h
39 15-11-2008 07:43:03 9 C 7.05 g/m*3 9 C 0 km/h
40 15-11-2008 07:55:03 9.4 C 7.15 g/m*3 9.4 C 0 km/h
41 15-11-2008 08:07:03 9.1 C 7.01 g/m*3 9.1 C 0 km/h
42 15-11-2008 08:19:01 9.3 C 7.1 g/m*3 9.3 C 0 km/h
43 15-11-2008 08:31:01 9.3 C 7.1 g/m*3 9.3 C 0 km/h
44 15-11-2008 08:43:01 9.3 C 7.01 g/m*3 9.3 C 0 km/h
45 15-11-2008 08:55:02 9.3 C 7.01 g/m*3 9.3 C 0 km/h
46 15-11-2008 09:07:02 9.4 C 7.05 g/m*3 9.4 C 0 km/h
47 15-11-2008 09:19:03 9.5 C 7.1 g/m*3 9.5 C 0 km/h
48 15-11-2008 09:31:02 9.5 C 7.01 g/m*3 9.5 C 0 km/h
49 15-11-2008 09:43:02 9.6 C 7.05 g/m*3 9.6 C 0 km/h
50 15-11-2008 09:55:02 9.6 C 7.05 g/m*3 9.6 C 0 km/h
Sensor: Nr:Datum:Temp:Abs-Feuchte:Windchill:Wind:
Aussen-T/F 51 15-11-2008 10:07:02 9.6 C 7.05 g/m*3 9.6 C 0 km/h
52 15-11-2008 10:19:02 9.7 C 7.01 g/m*3 9.7 C 0 km/h
53 15-11-2008 10:31:02 9.7 C 7.01 g/m*3 9.7 C 0 km/h
54 15-11-2008 10:43:03 9.8 C 7.05 g/m*3 9.8 C 0 km/h
55 15-11-2008 10:55:01 9.8 C 7.05 g/m*3 9.8 C 0 km/h
56 15-11-2008 11:07:02 9.8 C 7.05 g/m*3 9.8 C 0 km/h
57 15-11-2008 11:19:01 9.9 C 7.1 g/m*3 9.9 C 0 km/h
58 15-11-2008 11:31:02 10.1 C 7.09 g/m*3 10.1 C 0 km/h
59 15-11-2008 11:43:02 10.2 C 7.04 g/m*3 10.2 C 0 km/h
60 15-11-2008 11:55:02 10.4 C 7.13 g/m*3 10.4 C 0 km/h
61 15-11-2008 12:07:02 10.4 C 7.04 g/m*3 10.4 C 0 km/h
62 15-11-2008 12:19:02 10.6 C 7.03 g/m*3 10.6 C 0 km/h
63 15-11-2008 12:31:02 10.6 C 7.03 g/m*3 10.6 C 0 km/h
64 15-11-2008 12:43:02 10.7 C 7.07 g/m*3 10.7 C 0 km/h
65 15-11-2008 12:55:02 10.8 C 7.02 g/m*3 10.8 C 0 km/h
66 15-11-2008 13:07:01 11 C 6.91 g/m*3 11 C 0 km/h
67 15-11-2008 13:19:02 11 C 6.81 g/m*3 11 C 0 km/h
68 15-11-2008 13:31:02 11.1 C 6.85 g/m*3 11.1 C 0 km/h
69 15-11-2008 13:43:02 11.2 C 6.79 g/m*3 11.2 C 0 km/h
70 15-11-2008 13:55:02 11.3 C 6.83 g/m*3 11.3 C 0 km/h
71 15-11-2008 14:07:02 11.3 C 6.83 g/m*3 11.3 C 0 km/h
72 15-11-2008 14:19:02 11.3 C 6.83 g/m*3 11.3 C 0 km/h
73 15-11-2008 14:31:02 11.4 C 6.88 g/m*3 11.4 C 0 km/h
74 15-11-2008 14:43:02 11.4 C 6.88 g/m*3 11.4 C 0 km/h
75 15-11-2008 14:55:02 11.4 C 6.88 g/m*3 11.4 C 0 km/h
Sensor: Nr:Datum:Temp:Abs-Feuchte:Windchill:Wind:
Aussen-T/F 76 15-11-2008 15:07:02 11.3 C 6.94 g/m*3 11.3 C 0 km/h
77 15-11-2008 15:19:02 11.3 C 6.94 g/m*3 11.3 C 0 km/h
78 15-11-2008 15:31:02 11.3 C 6.94 g/m*3 11.3 C 0 km/h
79 15-11-2008 15:43:02 11.2 C 6.99 g/m*3 11.2 C 0 km/h
80 15-11-2008 15:55:02 11.2 C 6.99 g/m*3 11.2 C 0 km/h
81 15-11-2008 16:07:02 11.1 C 7.05 g/m*3 11.1 C 0 km/h
82 15-11-2008 16:19:02 11 C 7.01 g/m*3 11 C 0 km/h
83 15-11-2008 16:31:02 11 C 7.11 g/m*3 11 C 0 km/h
84 15-11-2008 16:43:02 11 C 7.11 g/m*3 11 C 0 km/h
85 15-11-2008 16:55:01 11 C 7.11 g/m*3 11 C 0 km/h
86 15-11-2008 17:07:02 10.9 C 7.16 g/m*3 10.9 C 0 km/h
87 15-11-2008 17:19:02 10.9 C 7.26 g/m*3 10.9 C 0 km/h
88 15-11-2008 17:31:02 10.9 C 7.26 g/m*3 10.9 C 0 km/h
89 15-11-2008 17:43:02 10.8 C 7.22 g/m*3 10.8 C 0 km/h
90 15-11-2008 17:55:02 10.8 C 7.31 g/m*3 10.8 C 0 km/h
91 15-11-2008 18:07:03 10.8 C 7.31 g/m*3 10.8 C 0 km/h
92 15-11-2008 18:19:02 10.7 C 7.27 g/m*3 10.7 C 0 km/h
93 15-11-2008 18:31:03 10.8 C 7.31 g/m*3 10.8 C 0 km/h
94 15-11-2008 18:43:03 10.7 C 7.27 g/m*3 10.7 C 0 km/h
95 15-11-2008 18:55:02 10.7 C 7.27 g/m*3 10.7 C 0 km/h
96 15-11-2008 19:07:02 10.7 C 7.27 g/m*3 10.7 C 0 km/h
97 15-11-2008 19:19:02 10.7 C 7.27 g/m*3 10.7 C 0 km/h
98 15-11-2008 19:31:02 10.7 C 7.27 g/m*3 10.7 C 0 km/h
99 15-11-2008 19:43:02 10.7 C 7.27 g/m*3 10.7 C 0 km/h
100 15-11-2008 19:55:01 10.7 C 7.37 g/m*3 10.7 C 0 km/h
Sensor: Nr:Datum:Temp:Abs-Feuchte:Windchill:Wind:
Aussen-T/F 101 15-11-2008 20:07:02 10.7 C 7.37 g/m*3 10.7 C 0 km/h
102 15-11-2008 20:19:01 10.6 C 7.32 g/m*3 10.6 C 0 km/h
103 15-11-2008 20:31:01 10.6 C 7.32 g/m*3 10.6 C 0 km/h
104 15-11-2008 20:43:01 10.6 C 7.42 g/m*3 10.6 C 0 km/h
105 15-11-2008 20:55:02 10.6 C 7.42 g/m*3 10.6 C 0 km/h
106 15-11-2008 21:07:02 10.5 C 7.47 g/m*3 10.5 C 0 km/h
107 15-11-2008 21:19:02 10.5 C 7.47 g/m*3 10.5 C 0 km/h
108 15-11-2008 21:31:02 10.5 C 7.47 g/m*3 10.5 C 0 km/h
109 15-11-2008 21:43:02 10.5 C 7.57 g/m*3 10.5 C 0 km/h
110 15-11-2008 21:55:02 10.5 C 7.57 g/m*3 10.5 C 0 km/h
111 15-11-2008 22:07:01 10.5 C 7.57 g/m*3 10.5 C 0 km/h
112 15-11-2008 22:19:02 10.5 C 7.57 g/m*3 10.5 C 0 km/h
113 15-11-2008 22:31:01 10.5 C 7.57 g/m*3 10.5 C 0 km/h
114 15-11-2008 22:43:01 10.4 C 7.52 g/m*3 10.4 C 0 km/h
115 15-11-2008 22:55:02 10.4 C 7.61 g/m*3 10.4 C 0 km/h
116 15-11-2008 23:07:01 10.4 C 7.61 g/m*3 10.4 C 0 km/h
117 15-11-2008 23:20:02 10.4 C 7.61 g/m*3 10.4 C 0 km/h
118 15-11-2008 23:32:02 10.4 C 7.61 g/m*3 10.4 C 0 km/h
119 15-11-2008 23:44:02 10.4 C 7.61 g/m*3 10.4 C 0 km/h
120 15-11-2008 23:56:03 10.3 C 7.66 g/m*3 10.3 C 0 km/h
121 16-11-2008 00:08:03 10.2 C 7.71 g/m*3 10.2 C 0 km/h
122 16-11-2008 00:20:03 10.1 C 7.85 g/m*3 10.1 C 0 km/h
123 16-11-2008 00:32:03 10 C 7.8 g/m*3 10 C 0 km/h
124 16-11-2008 00:44:03 10.1 C 7.94 g/m*3 10.1 C 0 km/h
125 16-11-2008 00:56:03 10 C 7.89 g/m*3 10 C 0 km/h
Sensor: Nr:Datum:Temp:Abs-Feuchte:Windchill:Wind:
Aussen-T/F 126 16-11-2008 01:08:03 10.1 C 7.94 g/m*3 10.1 C 0 km/h
127 16-11-2008 01:20:03 10.1 C 7.94 g/m*3 10.1 C 0 km/h
128 16-11-2008 01:32:03 10.1 C 7.94 g/m*3 10.1 C 0 km/h
129 16-11-2008 01:44:03 10.1 C 7.94 g/m*3 10.1 C 0 km/h
130 16-11-2008 01:56:03 10 C 7.99 g/m*3 10 C 0 km/h
131 16-11-2008 02:08:03 9.9 C 8.12 g/m*3 9.9 C 0 km/h
132 16-11-2008 02:20:03 10 C 8.08 g/m*3 10 C 0 km/h
133 16-11-2008 02:32:03 10.1 C 8.13 g/m*3 10.1 C 0 km/h
134 16-11-2008 02:44:03 10.2 C 8.18 g/m*3 10.2 C 0 km/h
135 16-11-2008 02:56:03 10.3 C 8.14 g/m*3 10.3 C 0 km/h
136 16-11-2008 03:08:03 10.3 C 8.04 g/m*3 10.3 C 0 km/h
137 16-11-2008 03:20:03 10.4 C 8 g/m*3 10.4 C 0 km/h
138 16-11-2008 03:32:03 10.4 C 8 g/m*3 10.4 C 0 km/h
139 16-11-2008 03:44:04 10.4 C 7.9 g/m*3 10.4 C 0 km/h
140 16-11-2008 03:56:04 10.4 C 7.9 g/m*3 10.4 C 0 km/h
141 16-11-2008 04:08:04 10.4 C 7.9 g/m*3 10.4 C 0 km/h
142 16-11-2008 04:20:04 10.5 C 7.95 g/m*3 10.5 C 0 km/h
143 16-11-2008 04:32:04 10.4 C 7.9 g/m*3 10.4 C 0 km/h
144 16-11-2008 04:44:04 10.5 C 7.95 g/m*3 10.5 C 0 km/h
145 16-11-2008 04:56:04 10.6 C 7.91 g/m*3 10.6 C 0 km/h
146 16-11-2008 05:08:04 10.7 C 7.86 g/m*3 10.7 C 0 km/h
147 16-11-2008 05:20:04 10.7 C 7.86 g/m*3 10.7 C 0 km/h
148 16-11-2008 05:32:04 10.7 C 7.86 g/m*3 10.7 C 0 km/h
149 16-11-2008 05:44:04 10.8 C 7.91 g/m*3 10.8 C 0 km/h
150 16-11-2008 05:56:04 10.8 C 7.81 g/m*3 10.8 C 0 km/h
Sensor: Nr:Datum:Temp:Abs-Feuchte:Windchill:Wind:
Aussen-T/F 151 16-11-2008 06:08:04 10.7 C 7.86 g/m*3 10.7 C 0 km/h
152 16-11-2008 06:20:04 10.5 C 7.86 g/m*3 10.5 C 0 km/h
153 16-11-2008 06:32:04 10.2 C 7.99 g/m*3 10.2 C 0 km/h
154 16-11-2008 06:44:04 10.3 C 8.14 g/m*3 10.3 C 0 km/h
155 16-11-2008 06:56:04 10.4 C 8.1 g/m*3 10.4 C 0 km/h
156 16-11-2008 07:08:04 10.5 C 8.15 g/m*3 10.5 C 0 km/h
157 16-11-2008 07:20:04 10.6 C 8.1 g/m*3 10.6 C 0 km/h
158 16-11-2008 07:32:04 10.7 C 8.05 g/m*3 10.7 C 0 km/h
159 16-11-2008 07:44:05 10.7 C 8.05 g/m*3 10.7 C 0 km/h
160 16-11-2008 07:56:05 10.8 C 8.11 g/m*3 10.8 C 0 km/h
161 16-11-2008 08:08:05 10.9 C 8.06 g/m*3 10.9 C 0 km/h
162 16-11-2008 08:20:01 11 C 8.01 g/m*3 11 C 0 km/h
163 16-11-2008 08:32:01 11.1 C 8.06 g/m*3 11.1 C 0 km/h
164 16-11-2008 08:44:01 11.2 C 8.01 g/m*3 11.2 C 0 km/h
165 16-11-2008 08:56:01 11.2 C 8.01 g/m*3 11.2 C 0 km/h
166 16-11-2008 09:08:01 11.2 C 8.01 g/m*3 11.2 C 0 km/h
167 16-11-2008 09:20:01 11.4 C 8.01 g/m*3 11.4 C 0 km/h
168 16-11-2008 09:32:01 11.7 C 8.16 g/m*3 11.7 C 0 km/h
169 16-11-2008 09:44:01 11.6 C 8.11 g/m*3 11.6 C 0 km/h
170 16-11-2008 09:56:02 11.6 C 8.21 g/m*3 11.6 C 0 km/h
171 16-11-2008 10:08:02 11.4 C 8.21 g/m*3 11.4 C 0 km/h
172 16-11-2008 10:20:02 11.2 C 8.21 g/m*3 11.2 C 0 km/h
173 16-11-2008 10:32:02 10.9 C 8.45 g/m*3 10.9 C 0 km/h
174 16-11-2008 10:44:02 10.7 C 8.64 g/m*3 10.7 C 0 km/h
175 16-11-2008 10:56:03 10.7 C 8.74 g/m*3 10.7 C 0 km/h
Sensor: Nr:Datum:Temp:Abs-Feuchte:Windchill:Wind:
Aussen-T/F 176 16-11-2008 11:08:03 10.8 C 8.9 g/m*3 10.8 C 0 km/h
177 16-11-2008 11:20:02 10.9 C 8.95 g/m*3 10.9 C 0 km/h
178 16-11-2008 11:32:02 11.1 C 9.07 g/m*3 11.1 C 0 km/h
179 16-11-2008 11:44:02 11.6 C 9.46 g/m*3 11.6 C 0 km/h
180 16-11-2008 11:56:02 12.2 C 9.71 g/m*3 12.2 C 0 km/h
181 16-11-2008 12:08:02 12.4 C 9.62 g/m*3 12.4 C 0 km/h
182 16-11-2008 12:20:02 12.5 C 9.46 g/m*3 12.5 C 0 km/h
183 16-11-2008 12:32:02 12.7 C 9.35 g/m*3 12.7 C 0 km/h
184 16-11-2008 12:44:02 12.7 C 9.35 g/m*3 12.7 C 0 km/h
185 16-11-2008 12:56:01 12.7 C 9.24 g/m*3 12.7 C 0 km/h
186 16-11-2008 13:08:02 12.7 C 9.13 g/m*3 12.7 C 0 km/h
187 16-11-2008 13:20:01 12.7 C 9.02 g/m*3 12.7 C 0 km/h
188 16-11-2008 13:32:02 12.4 C 8.85 g/m*3 12.4 C 0 km/h
189 16-11-2008 13:44:02 12.3 C 8.8 g/m*3 12.3 C 0 km/h
190 16-11-2008 13:56:01 12.1 C 8.79 g/m*3 12.1 C 0 km/h
191 16-11-2008 14:08:02 11.5 C 8.88 g/m*3 11.5 C 0 km/h
192 16-11-2008 14:20:01 10.9 C 8.65 g/m*3 10.9 C 0 km/h
193 16-11-2008 14:32:01 10.7 C 8.64 g/m*3 10.7 C 0 km/h
194 16-11-2008 14:44:01 10.4 C 8.58 g/m*3 10.4 C 0 km/h
195 16-11-2008 14:56:01 10.4 C 8.58 g/m*3 10.4 C 0 km/h
196 16-11-2008 15:08:02 10.3 C 8.62 g/m*3 10.3 C 0 km/h
197 16-11-2008 15:20:01 10.1 C 8.51 g/m*3 10.1 C 0 km/h
198 16-11-2008 15:32:02 10.1 C 8.61 g/m*3 10.1 C 0 km/h
199 16-11-2008 15:44:02 10 C 8.55 g/m*3 10 C 0 km/h
200 16-11-2008 15:56:02 9.9 C 8.68 g/m*3 9.9 C 0 km/h
Sensor: Nr:Datum:Temp:Abs-Feuchte:Windchill:Wind:
Aussen-T/F 201 16-11-2008 16:08:02 9.7 C 8.57 g/m*3 9.7 C 0 km/h
202 16-11-2008 16:20:02 9.6 C 8.43 g/m*3 9.6 C 0 km/h
203 16-11-2008 16:32:02 9.6 C 8.52 g/m*3 9.6 C 0 km/h
204 16-11-2008 16:44:02 9.5 C 8.37 g/m*3 9.5 C 0 km/h
205 16-11-2008 16:56:02 9.4 C 8.32 g/m*3 9.4 C 0 km/h
206 16-11-2008 17:08:02 9.1 C 7.99 g/m*3 9.1 C 0 km/h
207 16-11-2008 17:20:02 9.2 C 8.04 g/m*3 9.2 C 0 km/h
208 16-11-2008 17:32:02 9.2 C 7.95 g/m*3 9.2 C 0 km/h
209 16-11-2008 17:44:02 9.3 C 7.91 g/m*3 9.3 C 0 km/h
210 16-11-2008 17:56:02 9.1 C 7.72 g/m*3 9.1 C 0 km/h
211 16-11-2008 18:08:02 8.9 C 7.62 g/m*3 8.9 C 0 km/h
212 16-11-2008 18:20:02 8.8 C 7.66 g/m*3 8.8 C 0 km/h
213 16-11-2008 18:32:02 8.9 C 7.71 g/m*3 8.9 C 0 km/h
214 16-11-2008 18:44:02 8.9 C 7.71 g/m*3 8.9 C 0 km/h
215 16-11-2008 18:56:02 8.8 C 7.66 g/m*3 8.8 C 0 km/h
216 16-11-2008 19:08:03 8.5 C 7.43 g/m*3 8.5 C 0 km/h
217 16-11-2008 19:20:02 8.3 C 7.25 g/m*3 8.3 C 0 km/h
218 16-11-2008 19:32:02 8.2 C 7.29 g/m*3 8.2 C 0 km/h
219 16-11-2008 19:44:02 8.3 C 7.42 g/m*3 8.3 C 0 km/h
220 16-11-2008 19:56:02 8.6 C 7.39 g/m*3 8.6 C 0 km/h
221 16-11-2008 20:08:01 8.8 C 7.22 g/m*3 8.8 C 0 km/h
222 16-11-2008 20:20:02 8.9 C 7.01 g/m*3 8.9 C 0 km/h
223 16-11-2008 20:32:02 8.7 C 6.92 g/m*3 8.7 C 0 km/h
224 16-11-2008 20:44:02 8.7 C 6.83 g/m*3 8.7 C 0 km/h
225 16-11-2008 20:56:02 8.8 C 6.88 g/m*3 8.8 C 0 km/h
Sensor: Nr:Datum:Temp:Abs-Feuchte:Windchill:Wind:
Aussen-T/F 226 16-11-2008 21:08:02 8.8 C 6.79 g/m*3 8.8 C 0 km/h
227 16-11-2008 21:20:02 8.1 C 5.91 g/m*3 8.1 C 0 km/h
228 16-11-2008 21:32:02 7.6 C 5.8 g/m*3 7.6 C 0 km/h
229 16-11-2008 21:44:03 7.3 C 5.77 g/m*3 7.3 C 0 km/h
230 16-11-2008 21:56:02 7 C 5.81 g/m*3 7 C 0 km/h
231 16-11-2008 22:08:01 6.8 C 5.81 g/m*3 6.8 C 0 km/h
232 16-11-2008 22:20:01 6.7 C 5.77 g/m*3 6.7 C 0 km/h
233 16-11-2008 22:32:01 6.5 C 5.7 g/m*3 6.5 C 0 km/h
234 16-11-2008 22:44:01 6.3 C 5.7 g/m*3 6.3 C 0 km/h
235 16-11-2008 22:56:01 6.1 C 5.63 g/m*3 6.1 C 0 km/h
236 16-11-2008 23:08:01 5.8 C 5.73 g/m*3 5.8 C 0 km/h
237 16-11-2008 23:20:01 5.8 C 5.73 g/m*3 5.8 C 0 km/h
238 16-11-2008 23:32:01 5.9 C 5.7 g/m*3 5.9 C 0 km/h
239 16-11-2008 23:44:01 5.8 C 5.66 g/m*3 5.8 C 0 km/h
240 16-11-2008 23:56:01 5.6 C 5.59 g/m*3 5.6 C 0 km/h

Legende:
   Min
   Max


Maximal/Minimal-Werte vom 17.04.2019 - 19.05.2019

Sensor Min Max Avg
Temp
(Aussen-T/F)
2.2 °C
13-05-2019  06:50:00
26.6 °C
24-04-2019  17:05:00
11.51 °C

Die Daten stammen von einer Davis Vantage Pro 2 Wetter-Station und werden unter Linux mit der Software wview2wettercgi und aufbereitet. Alle Angaben erfolgen ohne Gewähr für ihre Vollständigkeit oder Richtigkeit.
Kontakt: Rainer Krienke krienke@uni-koblenz.de . Meine Webseiten an der Uni Koblenz oder privat.
Version: $Revision: 0.78 $